sensor_id;sensor_type;location;lat;lon;timestamp;P1;durP1;ratioP1;P2;durP2;ratioP2
79126;SDS011;68528;48.814;8.904;2023-08-20T00:02:23;7.35;;;6.18;;
79126;SDS011;68528;48.814;8.904;2023-08-20T00:04:49;9.50;;;6.88;;
79126;SDS011;68528;48.814;8.904;2023-08-20T00:07:16;7.78;;;6.53;;
79126;SDS011;68528;48.814;8.904;2023-08-20T00:09:44;9.23;;;6.50;;
79126;SDS011;68528;48.814;8.904;2023-08-20T00:12:10;9.75;;;6.93;;
79126;SDS011;68528;48.814;8.904;2023-08-20T00:17:29;10.50;;;6.55;;
79126;SDS011;68528;48.814;8.904;2023-08-20T00:19:56;9.82;;;6.80;;
79126;SDS011;68528;48.814;8.904;2023-08-20T00:22:23;12.02;;;6.55;;
79126;SDS011;68528;48.814;8.904;2023-08-20T00:24:53;8.70;;;6.88;;
79126;SDS011;68528;48.814;8.904;2023-08-20T00:27:20;8.80;;;6.35;;
79126;SDS011;68528;48.814;8.904;2023-08-20T00:29:46;8.90;;;6.25;;
79126;SDS011;68528;48.814;8.904;2023-08-20T00:32:12;7.28;;;6.55;;
79126;SDS011;68528;48.814;8.904;2023-08-20T00:34:37;9.30;;;7.13;;
79126;SDS011;68528;48.814;8.904;2023-08-20T00:37:03;7.88;;;6.93;;
79126;SDS011;68528;48.814;8.904;2023-08-20T00:39:29;7.72;;;6.93;;
79126;SDS011;68528;48.814;8.904;2023-08-20T00:41:56;8.45;;;6.45;;
79126;SDS011;68528;48.814;8.904;2023-08-20T00:44:21;11.48;;;7.13;;
79126;SDS011;68528;48.814;8.904;2023-08-20T00:46:46;9.25;;;6.90;;
79126;SDS011;68528;48.814;8.904;2023-08-20T00:49:12;8.23;;;6.55;;
79126;SDS011;68528;48.814;8.904;2023-08-20T00:51:38;10.23;;;7.22;;
79126;SDS011;68528;48.814;8.904;2023-08-20T00:54:04;7.40;;;6.60;;
79126;SDS011;68528;48.814;8.904;2023-08-20T00:56:31;7.80;;;7.00;;
79126;SDS011;68528;48.814;8.904;2023-08-20T00:58:56;8.40;;;6.63;;
79126;SDS011;68528;48.814;8.904;2023-08-20T01:01:23;7.90;;;6.32;;
79126;SDS011;68528;48.814;8.904;2023-08-20T01:03:48;8.98;;;7.13;;
79126;SDS011;68528;48.814;8.904;2023-08-20T01:06:23;8.77;;;7.15;;
79126;SDS011;68528;48.814;8.904;2023-08-20T01:11:56;11.55;;;7.03;;
79126;SDS011;68528;48.814;8.904;2023-08-20T01:14:24;11.15;;;7.30;;
79126;SDS011;68528;48.814;8.904;2023-08-20T01:16:50;10.63;;;7.70;;
79126;SDS011;68528;48.814;8.904;2023-08-20T01:19:19;9.70;;;7.80;;
79126;SDS011;68528;48.814;8.904;2023-08-20T01:24:47;8.57;;;6.72;;
79126;SDS011;68528;48.814;8.904;2023-08-20T01:30:42;10.23;;;7.97;;
79126;SDS011;68528;48.814;8.904;2023-08-20T01:33:09;11.90;;;8.45;;
79126;SDS011;68528;48.814;8.904;2023-08-20T01:35:38;9.10;;;7.22;;
79126;SDS011;68528;48.814;8.904;2023-08-20T01:38:06;8.77;;;7.28;;
79126;SDS011;68528;48.814;8.904;2023-08-20T01:40:32;9.48;;;7.13;;
79126;SDS011;68528;48.814;8.904;2023-08-20T01:43:02;8.20;;;7.10;;
79126;SDS011;68528;48.814;8.904;2023-08-20T01:45:27;9.65;;;7.65;;
79126;SDS011;68528;48.814;8.904;2023-08-20T01:47:53;9.00;;;7.85;;
79126;SDS011;68528;48.814;8.904;2023-08-20T01:50:18;9.43;;;7.82;;
79126;SDS011;68528;48.814;8.904;2023-08-20T01:52:47;8.82;;;6.90;;
79126;SDS011;68528;48.814;8.904;2023-08-20T01:55:16;9.60;;;7.30;;
79126;SDS011;68528;48.814;8.904;2023-08-20T01:57:43;9.00;;;7.35;;
79126;SDS011;68528;48.814;8.904;2023-08-20T02:00:09;8.88;;;6.93;;
79126;SDS011;68528;48.814;8.904;2023-08-20T02:02:35;10.02;;;7.90;;
79126;SDS011;68528;48.814;8.904;2023-08-20T02:05:00;9.00;;;8.00;;
79126;SDS011;68528;48.814;8.904;2023-08-20T02:07:51;10.40;;;8.00;;
79126;SDS011;68528;48.814;8.904;2023-08-20T02:10:17;10.27;;;7.93;;
79126;SDS011;68528;48.814;8.904;2023-08-20T02:12:43;9.13;;;7.47;;
79126;SDS011;68528;48.814;8.904;2023-08-20T02:15:09;8.88;;;7.85;;
79126;SDS011;68528;48.814;8.904;2023-08-20T02:17:36;10.23;;;7.10;;
79126;SDS011;68528;48.814;8.904;2023-08-20T02:20:02;9.25;;;7.63;;
79126;SDS011;68528;48.814;8.904;2023-08-20T02:22:29;11.73;;;7.82;;
79126;SDS011;68528;48.814;8.904;2023-08-20T02:24:54;11.02;;;7.60;;
79126;SDS011;68528;48.814;8.904;2023-08-20T02:27:20;10.43;;;8.98;;
79126;SDS011;68528;48.814;8.904;2023-08-20T02:29:52;9.82;;;7.63;;
79126;SDS011;68528;48.814;8.904;2023-08-20T02:32:19;9.25;;;7.75;;
79126;SDS011;68528;48.814;8.904;2023-08-20T02:34:48;8.38;;;7.45;;
79126;SDS011;68528;48.814;8.904;2023-08-20T02:37:15;9.70;;;7.53;;
79126;SDS011;68528;48.814;8.904;2023-08-20T02:39:41;10.32;;;8.02;;
79126;SDS011;68528;48.814;8.904;2023-08-20T02:42:06;10.93;;;7.93;;
79126;SDS011;68528;48.814;8.904;2023-08-20T02:44:31;13.45;;;7.60;;
79126;SDS011;68528;48.814;8.904;2023-08-20T02:46:57;13.07;;;8.98;;
79126;SDS011;68528;48.814;8.904;2023-08-20T02:49:22;10.18;;;8.23;;
79126;SDS011;68528;48.814;8.904;2023-08-20T02:51:49;10.85;;;7.95;;
79126;SDS011;68528;48.814;8.904;2023-08-20T02:54:14;10.50;;;7.88;;
79126;SDS011;68528;48.814;8.904;2023-08-20T02:56:40;11.25;;;9.25;;
79126;SDS011;68528;48.814;8.904;2023-08-20T02:59:05;9.35;;;7.82;;
79126;SDS011;68528;48.814;8.904;2023-08-20T03:01:30;11.68;;;8.32;;
79126;SDS011;68528;48.814;8.904;2023-08-20T03:03:56;10.77;;;7.78;;
79126;SDS011;68528;48.814;8.904;2023-08-20T03:06:23;12.73;;;8.05;;
79126;SDS011;68528;48.814;8.904;2023-08-20T03:08:48;9.00;;;7.18;;
79126;SDS011;68528;48.814;8.904;2023-08-20T03:11:13;11.82;;;8.15;;
79126;SDS011;68528;48.814;8.904;2023-08-20T03:13:40;12.23;;;8.35;;
79126;SDS011;68528;48.814;8.904;2023-08-20T03:16:06;12.67;;;9.20;;
79126;SDS011;68528;48.814;8.904;2023-08-20T03:18:31;10.82;;;8.93;;
79126;SDS011;68528;48.814;8.904;2023-08-20T03:20:56;11.48;;;7.85;;
79126;SDS011;68528;48.814;8.904;2023-08-20T03:23:22;12.73;;;8.68;;
79126;SDS011;68528;48.814;8.904;2023-08-20T03:25:49;12.65;;;9.27;;
79126;SDS011;68528;48.814;8.904;2023-08-20T03:28:15;13.02;;;8.85;;
79126;SDS011;68528;48.814;8.904;2023-08-20T03:30:43;10.57;;;8.57;;
79126;SDS011;68528;48.814;8.904;2023-08-20T03:33:08;11.32;;;8.23;;
79126;SDS011;68528;48.814;8.904;2023-08-20T03:35:33;14.00;;;8.57;;
79126;SDS011;68528;48.814;8.904;2023-08-20T03:37:59;12.90;;;9.52;;
79126;SDS011;68528;48.814;8.904;2023-08-20T03:40:24;11.18;;;7.57;;
79126;SDS011;68528;48.814;8.904;2023-08-20T03:42:53;12.63;;;8.27;;
79126;SDS011;68528;48.814;8.904;2023-08-20T03:45:22;14.38;;;9.15;;
79126;SDS011;68528;48.814;8.904;2023-08-20T03:47:48;11.30;;;8.65;;
79126;SDS011;68528;48.814;8.904;2023-08-20T03:50:14;10.75;;;8.30;;
79126;SDS011;68528;48.814;8.904;2023-08-20T03:52:39;9.43;;;7.65;;
79126;SDS011;68528;48.814;8.904;2023-08-20T03:55:05;11.57;;;8.35;;
79126;SDS011;68528;48.814;8.904;2023-08-20T03:57:30;13.60;;;8.98;;
79126;SDS011;68528;48.814;8.904;2023-08-20T03:59:58;11.48;;;8.80;;
79126;SDS011;68528;48.814;8.904;2023-08-20T04:02:30;14.90;;;10.02;;
79126;SDS011;68528;48.814;8.904;2023-08-20T04:07:25;8.60;;;7.70;;
79126;SDS011;68528;48.814;8.904;2023-08-20T04:09:53;10.32;;;8.75;;
79126;SDS011;68528;48.814;8.904;2023-08-20T04:12:20;13.32;;;9.00;;
79126;SDS011;68528;48.814;8.904;2023-08-20T04:14:45;11.37;;;8.67;;
79126;SDS011;68528;48.814;8.904;2023-08-20T04:17:14;10.70;;;8.35;;
79126;SDS011;68528;48.814;8.904;2023-08-20T04:19:40;9.82;;;8.10;;
79126;SDS011;68528;48.814;8.904;2023-08-20T04:22:09;11.73;;;8.52;;
79126;SDS011;68528;48.814;8.904;2023-08-20T04:24:34;11.25;;;8.73;;
79126;SDS011;68528;48.814;8.904;2023-08-20T04:27:15;10.95;;;8.07;;
79126;SDS011;68528;48.814;8.904;2023-08-20T04:29:41;10.52;;;8.00;;
79126;SDS011;68528;48.814;8.904;2023-08-20T04:32:08;12.00;;;7.57;;
79126;SDS011;68528;48.814;8.904;2023-08-20T04:34:54;10.20;;;8.52;;
79126;SDS011;68528;48.814;8.904;2023-08-20T04:37:19;11.40;;;8.45;;
79126;SDS011;68528;48.814;8.904;2023-08-20T04:39:46;11.68;;;8.85;;
79126;SDS011;68528;48.814;8.904;2023-08-20T04:42:12;10.00;;;7.85;;
79126;SDS011;68528;48.814;8.904;2023-08-20T04:44:38;12.57;;;8.90;;
79126;SDS011;68528;48.814;8.904;2023-08-20T04:47:03;11.35;;;8.13;;
79126;SDS011;68528;48.814;8.904;2023-08-20T04:49:28;9.80;;;7.93;;
79126;SDS011;68528;48.814;8.904;2023-08-20T04:51:55;16.73;;;9.77;;
79126;SDS011;68528;48.814;8.904;2023-08-20T04:54:20;12.50;;;9.18;;
79126;SDS011;68528;48.814;8.904;2023-08-20T04:56:46;14.80;;;11.23;;
79126;SDS011;68528;48.814;8.904;2023-08-20T04:59:34;12.90;;;9.32;;
79126;SDS011;68528;48.814;8.904;2023-08-20T05:01:59;11.80;;;9.40;;
79126;SDS011;68528;48.814;8.904;2023-08-20T05:04:25;10.32;;;9.02;;
79126;SDS011;68528;48.814;8.904;2023-08-20T05:06:50;11.70;;;8.50;;
79126;SDS011;68528;48.814;8.904;2023-08-20T05:09:15;9.38;;;7.60;;
79126;SDS011;68528;48.814;8.904;2023-08-20T05:11:41;12.02;;;9.18;;
79126;SDS011;68528;48.814;8.904;2023-08-20T05:14:07;10.50;;;8.68;;
79126;SDS011;68528;48.814;8.904;2023-08-20T05:16:34;11.35;;;8.25;;
79126;SDS011;68528;48.814;8.904;2023-08-20T05:19:00;14.15;;;9.73;;
79126;SDS011;68528;48.814;8.904;2023-08-20T05:21:25;16.13;;;9.38;;
79126;SDS011;68528;48.814;8.904;2023-08-20T05:23:50;11.90;;;9.20;;
79126;SDS011;68528;48.814;8.904;2023-08-20T05:26:16;12.23;;;9.13;;
79126;SDS011;68528;48.814;8.904;2023-08-20T05:28:41;13.45;;;8.80;;
79126;SDS011;68528;48.814;8.904;2023-08-20T05:31:06;11.85;;;8.55;;
79126;SDS011;68528;48.814;8.904;2023-08-20T05:33:32;9.85;;;8.38;;
79126;SDS011;68528;48.814;8.904;2023-08-20T05:35:58;12.38;;;9.85;;
79126;SDS011;68528;48.814;8.904;2023-08-20T05:38:27;12.23;;;9.50;;
79126;SDS011;68528;48.814;8.904;2023-08-20T05:40:54;13.38;;;9.75;;
79126;SDS011;68528;48.814;8.904;2023-08-20T05:43:19;11.10;;;8.57;;
79126;SDS011;68528;48.814;8.904;2023-08-20T05:45:45;10.38;;;8.10;;
79126;SDS011;68528;48.814;8.904;2023-08-20T05:48:10;12.93;;;9.40;;
79126;SDS011;68528;48.814;8.904;2023-08-20T05:50:35;14.18;;;9.95;;
79126;SDS011;68528;48.814;8.904;2023-08-20T05:53:01;11.65;;;8.65;;
79126;SDS011;68528;48.814;8.904;2023-08-20T05:55:26;9.88;;;7.60;;
79126;SDS011;68528;48.814;8.904;2023-08-20T05:57:52;10.23;;;7.78;;
79126;SDS011;68528;48.814;8.904;2023-08-20T06:00:17;8.52;;;6.80;;
79126;SDS011;68528;48.814;8.904;2023-08-20T06:02:43;11.10;;;7.43;;
79126;SDS011;68528;48.814;8.904;2023-08-20T06:05:10;13.18;;;8.02;;
79126;SDS011;68528;48.814;8.904;2023-08-20T06:07:36;11.45;;;8.15;;
79126;SDS011;68528;48.814;8.904;2023-08-20T06:10:01;10.32;;;8.32;;
79126;SDS011;68528;48.814;8.904;2023-08-20T06:12:27;9.90;;;6.95;;
79126;SDS011;68528;48.814;8.904;2023-08-20T06:14:53;12.48;;;7.70;;
79126;SDS011;68528;48.814;8.904;2023-08-20T06:17:18;9.90;;;7.53;;
79126;SDS011;68528;48.814;8.904;2023-08-20T06:19:44;10.75;;;7.50;;
79126;SDS011;68528;48.814;8.904;2023-08-20T06:22:09;8.43;;;6.90;;
79126;SDS011;68528;48.814;8.904;2023-08-20T06:24:35;10.32;;;7.13;;
79126;SDS011;68528;48.814;8.904;2023-08-20T06:27:01;11.07;;;7.63;;
79126;SDS011;68528;48.814;8.904;2023-08-20T06:29:27;8.25;;;7.07;;
79126;SDS011;68528;48.814;8.904;2023-08-20T06:31:52;11.27;;;7.55;;
79126;SDS011;68528;48.814;8.904;2023-08-20T06:34:18;9.52;;;7.68;;
79126;SDS011;68528;48.814;8.904;2023-08-20T06:36:43;10.73;;;6.88;;
79126;SDS011;68528;48.814;8.904;2023-08-20T06:39:09;12.52;;;7.15;;
79126;SDS011;68528;48.814;8.904;2023-08-20T06:41:34;9.88;;;7.03;;
79126;SDS011;68528;48.814;8.904;2023-08-20T06:44:00;11.35;;;7.55;;
79126;SDS011;68528;48.814;8.904;2023-08-20T06:46:26;7.53;;;6.82;;
79126;SDS011;68528;48.814;8.904;2023-08-20T06:48:53;8.27;;;6.38;;
79126;SDS011;68528;48.814;8.904;2023-08-20T06:51:19;9.40;;;7.10;;
79126;SDS011;68528;48.814;8.904;2023-08-20T06:53:46;8.30;;;6.38;;
79126;SDS011;68528;48.814;8.904;2023-08-20T06:56:11;10.18;;;6.00;;
79126;SDS011;68528;48.814;8.904;2023-08-20T06:58:41;7.75;;;6.05;;
79126;SDS011;68528;48.814;8.904;2023-08-20T07:01:08;9.13;;;6.35;;
79126;SDS011;68528;48.814;8.904;2023-08-20T07:03:36;9.95;;;6.50;;
79126;SDS011;68528;48.814;8.904;2023-08-20T07:06:03;6.32;;;5.70;;
79126;SDS011;68528;48.814;8.904;2023-08-20T07:08:28;5.97;;;5.47;;
79126;SDS011;68528;48.814;8.904;2023-08-20T07:10:54;8.85;;;5.97;;
79126;SDS011;68528;48.814;8.904;2023-08-20T07:13:19;8.50;;;6.00;;
79126;SDS011;68528;48.814;8.904;2023-08-20T07:15:45;7.88;;;5.72;;
79126;SDS011;68528;48.814;8.904;2023-08-20T07:18:10;7.80;;;5.53;;
79126;SDS011;68528;48.814;8.904;2023-08-20T07:20:38;8.65;;;5.88;;
79126;SDS011;68528;48.814;8.904;2023-08-20T07:23:04;10.77;;;7.15;;
79126;SDS011;68528;48.814;8.904;2023-08-20T07:25:29;8.57;;;6.13;;
79126;SDS011;68528;48.814;8.904;2023-08-20T07:27:55;7.88;;;5.38;;
79126;SDS011;68528;48.814;8.904;2023-08-20T07:30:27;7.45;;;5.72;;
79126;SDS011;68528;48.814;8.904;2023-08-20T07:32:54;10.00;;;5.93;;
79126;SDS011;68528;48.814;8.904;2023-08-20T07:35:21;11.57;;;7.55;;
79126;SDS011;68528;48.814;8.904;2023-08-20T07:37:47;7.20;;;5.80;;
79126;SDS011;68528;48.814;8.904;2023-08-20T07:40:12;8.32;;;6.88;;
79126;SDS011;68528;48.814;8.904;2023-08-20T07:42:42;7.15;;;5.20;;
79126;SDS011;68528;48.814;8.904;2023-08-20T07:45:08;8.90;;;5.55;;
79126;SDS011;68528;48.814;8.904;2023-08-20T07:47:35;6.28;;;5.68;;
79126;SDS011;68528;48.814;8.904;2023-08-20T07:50:01;7.43;;;5.60;;
79126;SDS011;68528;48.814;8.904;2023-08-20T07:52:27;10.45;;;6.10;;
79126;SDS011;68528;48.814;8.904;2023-08-20T07:54:52;8.63;;;5.72;;
79126;SDS011;68528;48.814;8.904;2023-08-20T07:57:18;6.43;;;5.00;;
79126;SDS011;68528;48.814;8.904;2023-08-20T07:59:44;7.53;;;5.00;;
79126;SDS011;68528;48.814;8.904;2023-08-20T08:02:11;8.27;;;5.40;;
79126;SDS011;68528;48.814;8.904;2023-08-20T08:04:39;9.10;;;5.93;;
79126;SDS011;68528;48.814;8.904;2023-08-20T08:07:05;10.65;;;5.93;;
79126;SDS011;68528;48.814;8.904;2023-08-20T08:09:31;8.30;;;5.90;;
79126;SDS011;68528;48.814;8.904;2023-08-20T08:11:57;7.15;;;5.70;;
79126;SDS011;68528;48.814;8.904;2023-08-20T08:14:24;8.95;;;6.03;;
79126;SDS011;68528;48.814;8.904;2023-08-20T08:16:50;6.25;;;5.32;;
79126;SDS011;68528;48.814;8.904;2023-08-20T08:19:18;6.95;;;6.22;;
79126;SDS011;68528;48.814;8.904;2023-08-20T08:21:54;9.32;;;6.78;;
79126;SDS011;68528;48.814;8.904;2023-08-20T08:24:27;7.88;;;5.95;;
79126;SDS011;68528;48.814;8.904;2023-08-20T08:26:52;8.45;;;5.38;;
79126;SDS011;68528;48.814;8.904;2023-08-20T08:29:20;7.15;;;5.07;;
79126;SDS011;68528;48.814;8.904;2023-08-20T08:31:47;5.70;;;5.10;;
79126;SDS011;68528;48.814;8.904;2023-08-20T08:34:13;7.40;;;5.63;;
79126;SDS011;68528;48.814;8.904;2023-08-20T08:36:40;7.78;;;5.68;;
79126;SDS011;68528;48.814;8.904;2023-08-20T08:39:05;7.95;;;5.45;;
79126;SDS011;68528;48.814;8.904;2023-08-20T08:41:54;9.05;;;5.80;;
79126;SDS011;68528;48.814;8.904;2023-08-20T08:44:25;6.32;;;4.90;;
79126;SDS011;68528;48.814;8.904;2023-08-20T08:46:52;7.85;;;5.88;;
79126;SDS011;68528;48.814;8.904;2023-08-20T08:49:21;9.45;;;5.30;;
79126;SDS011;68528;48.814;8.904;2023-08-20T08:51:46;9.25;;;5.15;;
79126;SDS011;68528;48.814;8.904;2023-08-20T08:54:13;7.40;;;5.18;;
79126;SDS011;68528;48.814;8.904;2023-08-20T08:56:40;9.10;;;5.13;;
79126;SDS011;68528;48.814;8.904;2023-08-20T08:59:05;11.52;;;5.53;;
79126;SDS011;68528;48.814;8.904;2023-08-20T09:01:31;5.15;;;4.57;;
79126;SDS011;68528;48.814;8.904;2023-08-20T09:03:58;6.85;;;5.65;;
79126;SDS011;68528;48.814;8.904;2023-08-20T09:06:23;5.35;;;4.40;;
79126;SDS011;68528;48.814;8.904;2023-08-20T09:08:49;7.00;;;5.22;;
79126;SDS011;68528;48.814;8.904;2023-08-20T09:11:14;7.53;;;5.35;;
79126;SDS011;68528;48.814;8.904;2023-08-20T09:13:41;7.85;;;5.50;;
79126;SDS011;68528;48.814;8.904;2023-08-20T09:16:11;8.50;;;5.28;;
79126;SDS011;68528;48.814;8.904;2023-08-20T09:18:38;8.07;;;4.97;;
79126;SDS011;68528;48.814;8.904;2023-08-20T09:21:08;6.82;;;4.47;;
79126;SDS011;68528;48.814;8.904;2023-08-20T09:23:35;6.90;;;5.05;;
79126;SDS011;68528;48.814;8.904;2023-08-20T09:26:02;8.00;;;4.90;;
79126;SDS011;68528;48.814;8.904;2023-08-20T09:28:30;4.82;;;4.15;;
79126;SDS011;68528;48.814;8.904;2023-08-20T09:31:06;6.55;;;4.40;;
79126;SDS011;68528;48.814;8.904;2023-08-20T09:33:32;5.80;;;4.35;;
79126;SDS011;68528;48.814;8.904;2023-08-20T09:35:59;10.25;;;4.45;;
79126;SDS011;68528;48.814;8.904;2023-08-20T09:38:24;5.60;;;4.65;;
79126;SDS011;68528;48.814;8.904;2023-08-20T09:40:50;5.68;;;4.40;;
79126;SDS011;68528;48.814;8.904;2023-08-20T09:43:23;6.35;;;4.85;;
79126;SDS011;68528;48.814;8.904;2023-08-20T09:45:55;11.23;;;4.45;;
79126;SDS011;68528;48.814;8.904;2023-08-20T09:48:24;6.82;;;5.47;;
79126;SDS011;68528;48.814;8.904;2023-08-20T09:50:53;6.65;;;4.70;;
79126;SDS011;68528;48.814;8.904;2023-08-20T09:53:26;5.72;;;4.63;;
79126;SDS011;68528;48.814;8.904;2023-08-20T09:56:06;6.65;;;4.38;;
79126;SDS011;68528;48.814;8.904;2023-08-20T09:58:40;8.13;;;4.60;;
79126;SDS011;68528;48.814;8.904;2023-08-20T10:01:07;5.47;;;4.95;;
79126;SDS011;68528;48.814;8.904;2023-08-20T10:03:34;5.40;;;4.40;;
79126;SDS011;68528;48.814;8.904;2023-08-20T10:05:59;4.90;;;4.13;;
79126;SDS011;68528;48.814;8.904;2023-08-20T10:08:27;7.32;;;5.20;;
79126;SDS011;68528;48.814;8.904;2023-08-20T10:10:52;7.72;;;4.88;;
79126;SDS011;68528;48.814;8.904;2023-08-20T10:13:18;7.28;;;4.38;;
79126;SDS011;68528;48.814;8.904;2023-08-20T10:15:44;6.35;;;4.75;;
79126;SDS011;68528;48.814;8.904;2023-08-20T10:18:11;8.00;;;4.15;;
79126;SDS011;68528;48.814;8.904;2023-08-20T10:20:38;6.85;;;4.70;;
79126;SDS011;68528;48.814;8.904;2023-08-20T10:23:05;10.93;;;5.35;;
79126;SDS011;68528;48.814;8.904;2023-08-20T10:25:30;6.53;;;4.32;;
79126;SDS011;68528;48.814;8.904;2023-08-20T10:31:11;9.00;;;4.50;;
79126;SDS011;68528;48.814;8.904;2023-08-20T10:33:38;6.50;;;4.53;;
79126;SDS011;68528;48.814;8.904;2023-08-20T10:36:15;4.30;;;3.90;;
79126;SDS011;68528;48.814;8.904;2023-08-20T10:38:51;6.88;;;4.97;;
79126;SDS011;68528;48.814;8.904;2023-08-20T10:41:27;5.38;;;3.80;;
79126;SDS011;68528;48.814;8.904;2023-08-20T10:43:57;7.43;;;4.57;;
79126;SDS011;68528;48.814;8.904;2023-08-20T10:46:23;6.25;;;4.32;;
79126;SDS011;68528;48.814;8.904;2023-08-20T10:49:02;5.55;;;4.25;;
79126;SDS011;68528;48.814;8.904;2023-08-20T10:51:28;9.30;;;4.00;;
79126;SDS011;68528;48.814;8.904;2023-08-20T10:54:04;5.70;;;4.40;;
79126;SDS011;68528;48.814;8.904;2023-08-20T10:56:47;10.45;;;4.90;;
79126;SDS011;68528;48.814;8.904;2023-08-20T10:59:26;7.35;;;4.53;;
79126;SDS011;68528;48.814;8.904;2023-08-20T11:01:54;5.10;;;4.05;;
79126;SDS011;68528;48.814;8.904;2023-08-20T11:04:27;4.90;;;4.22;;
79126;SDS011;68528;48.814;8.904;2023-08-20T11:06:54;6.32;;;4.47;;
79126;SDS011;68528;48.814;8.904;2023-08-20T11:09:25;9.15;;;4.18;;
79126;SDS011;68528;48.814;8.904;2023-08-20T11:11:52;9.40;;;4.40;;
79126;SDS011;68528;48.814;8.904;2023-08-20T11:14:17;6.13;;;4.60;;
79126;SDS011;68528;48.814;8.904;2023-08-20T11:16:45;4.43;;;3.75;;
79126;SDS011;68528;48.814;8.904;2023-08-20T11:19:11;8.07;;;4.25;;
79126;SDS011;68528;48.814;8.904;2023-08-20T11:21:42;6.45;;;5.30;;
79126;SDS011;68528;48.814;8.904;2023-08-20T11:24:07;7.45;;;3.83;;
79126;SDS011;68528;48.814;8.904;2023-08-20T11:26:34;4.18;;;3.78;;
79126;SDS011;68528;48.814;8.904;2023-08-20T11:29:02;7.82;;;4.65;;
79126;SDS011;68528;48.814;8.904;2023-08-20T11:31:31;6.40;;;4.07;;
79126;SDS011;68528;48.814;8.904;2023-08-20T11:36:34;5.78;;;4.22;;
79126;SDS011;68528;48.814;8.904;2023-08-20T11:39:00;6.13;;;3.83;;
79126;SDS011;68528;48.814;8.904;2023-08-20T11:41:25;7.95;;;4.30;;
79126;SDS011;68528;48.814;8.904;2023-08-20T11:43:51;4.30;;;3.90;;
79126;SDS011;68528;48.814;8.904;2023-08-20T11:46:19;7.32;;;4.63;;
79126;SDS011;68528;48.814;8.904;2023-08-20T11:51:23;7.00;;;4.38;;
79126;SDS011;68528;48.814;8.904;2023-08-20T11:53:49;5.53;;;4.40;;
79126;SDS011;68528;48.814;8.904;2023-08-20T11:56:14;6.03;;;4.18;;
79126;SDS011;68528;48.814;8.904;2023-08-20T11:58:39;5.70;;;4.10;;
79126;SDS011;68528;48.814;8.904;2023-08-20T12:01:07;5.75;;;3.88;;
79126;SDS011;68528;48.814;8.904;2023-08-20T12:03:50;6.35;;;4.43;;
79126;SDS011;68528;48.814;8.904;2023-08-20T12:06:19;4.97;;;4.18;;
79126;SDS011;68528;48.814;8.904;2023-08-20T12:08:45;6.05;;;4.10;;
79126;SDS011;68528;48.814;8.904;2023-08-20T12:11:41;6.60;;;4.20;;
79126;SDS011;68528;48.814;8.904;2023-08-20T12:14:13;6.13;;;3.88;;
79126;SDS011;68528;48.814;8.904;2023-08-20T12:16:39;5.15;;;3.60;;
79126;SDS011;68528;48.814;8.904;2023-08-20T12:19:04;4.88;;;4.00;;
79126;SDS011;68528;48.814;8.904;2023-08-20T12:21:55;6.55;;;4.13;;
79126;SDS011;68528;48.814;8.904;2023-08-20T12:24:21;9.20;;;4.43;;
79126;SDS011;68528;48.814;8.904;2023-08-20T12:26:46;6.45;;;3.75;;
79126;SDS011;68528;48.814;8.904;2023-08-20T12:29:12;6.03;;;4.55;;
79126;SDS011;68528;48.814;8.904;2023-08-20T12:31:37;8.95;;;4.38;;
79126;SDS011;68528;48.814;8.904;2023-08-20T12:34:03;4.53;;;3.97;;
79126;SDS011;68528;48.814;8.904;2023-08-20T12:36:48;5.43;;;3.55;;
79126;SDS011;68528;48.814;8.904;2023-08-20T12:42:34;8.63;;;4.38;;
79126;SDS011;68528;48.814;8.904;2023-08-20T12:45:06;5.18;;;4.25;;
79126;SDS011;68528;48.814;8.904;2023-08-20T12:47:33;6.38;;;4.20;;
79126;SDS011;68528;48.814;8.904;2023-08-20T12:52:47;4.90;;;3.88;;
79126;SDS011;68528;48.814;8.904;2023-08-20T12:55:18;7.32;;;3.80;;
79126;SDS011;68528;48.814;8.904;2023-08-20T12:57:55;5.10;;;3.60;;
79126;SDS011;68528;48.814;8.904;2023-08-20T13:00:25;5.13;;;4.28;;
79126;SDS011;68528;48.814;8.904;2023-08-20T13:02:52;6.53;;;4.10;;
79126;SDS011;68528;48.814;8.904;2023-08-20T13:05:20;6.05;;;3.95;;
79126;SDS011;68528;48.814;8.904;2023-08-20T13:07:48;5.28;;;4.75;;
79126;SDS011;68528;48.814;8.904;2023-08-20T13:10:14;5.90;;;4.15;;
79126;SDS011;68528;48.814;8.904;2023-08-20T13:12:51;7.57;;;4.18;;
79126;SDS011;68528;48.814;8.904;2023-08-20T13:15:41;6.07;;;4.13;;
79126;SDS011;68528;48.814;8.904;2023-08-20T13:18:12;5.15;;;4.63;;
79126;SDS011;68528;48.814;8.904;2023-08-20T13:20:39;5.80;;;4.00;;
79126;SDS011;68528;48.814;8.904;2023-08-20T13:23:09;7.65;;;3.85;;
79126;SDS011;68528;48.814;8.904;2023-08-20T13:25:35;5.97;;;3.92;;
79126;SDS011;68528;48.814;8.904;2023-08-20T13:28:01;5.18;;;4.13;;
79126;SDS011;68528;48.814;8.904;2023-08-20T13:30:27;5.45;;;3.95;;
79126;SDS011;68528;48.814;8.904;2023-08-20T13:33:01;6.03;;;4.28;;
79126;SDS011;68528;48.814;8.904;2023-08-20T13:35:46;5.43;;;3.70;;
79126;SDS011;68528;48.814;8.904;2023-08-20T13:38:12;5.65;;;4.38;;
79126;SDS011;68528;48.814;8.904;2023-08-20T13:40:37;6.60;;;3.92;;
79126;SDS011;68528;48.814;8.904;2023-08-20T13:43:02;6.18;;;5.07;;
79126;SDS011;68528;48.814;8.904;2023-08-20T13:45:28;8.55;;;4.57;;
79126;SDS011;68528;48.814;8.904;2023-08-20T13:47:53;5.15;;;4.65;;
79126;SDS011;68528;48.814;8.904;2023-08-20T13:50:19;6.25;;;3.75;;
79126;SDS011;68528;48.814;8.904;2023-08-20T13:52:50;8.73;;;4.38;;
79126;SDS011;68528;48.814;8.904;2023-08-20T13:55:16;6.93;;;5.28;;
79126;SDS011;68528;48.814;8.904;2023-08-20T13:57:43;8.73;;;4.82;;
79126;SDS011;68528;48.814;8.904;2023-08-20T14:00:10;6.07;;;3.75;;
79126;SDS011;68528;48.814;8.904;2023-08-20T14:02:37;11.73;;;4.03;;
79126;SDS011;68528;48.814;8.904;2023-08-20T14:05:03;7.10;;;4.38;;
79126;SDS011;68528;48.814;8.904;2023-08-20T14:07:30;7.07;;;4.20;;
79126;SDS011;68528;48.814;8.904;2023-08-20T14:09:55;6.93;;;4.00;;
79126;SDS011;68528;48.814;8.904;2023-08-20T14:17:21;11.67;;;4.57;;
79126;SDS011;68528;48.814;8.904;2023-08-20T14:19:46;6.70;;;4.30;;
79126;SDS011;68528;48.814;8.904;2023-08-20T14:22:12;5.85;;;4.43;;
79126;SDS011;68528;48.814;8.904;2023-08-20T14:24:37;7.85;;;5.10;;
79126;SDS011;68528;48.814;8.904;2023-08-20T14:27:03;5.18;;;4.32;;
79126;SDS011;68528;48.814;8.904;2023-08-20T14:29:30;9.45;;;4.63;;
79126;SDS011;68528;48.814;8.904;2023-08-20T14:31:55;7.47;;;4.10;;
79126;SDS011;68528;48.814;8.904;2023-08-20T14:34:21;5.72;;;4.30;;
79126;SDS011;68528;48.814;8.904;2023-08-20T14:36:46;7.07;;;3.93;;
79126;SDS011;68528;48.814;8.904;2023-08-20T14:39:11;5.97;;;4.22;;
79126;SDS011;68528;48.814;8.904;2023-08-20T14:41:37;6.85;;;3.60;;
79126;SDS011;68528;48.814;8.904;2023-08-20T14:44:04;5.70;;;4.20;;
79126;SDS011;68528;48.814;8.904;2023-08-20T14:46:36;6.13;;;3.97;;
79126;SDS011;68528;48.814;8.904;2023-08-20T14:49:06;6.63;;;4.25;;
79126;SDS011;68528;48.814;8.904;2023-08-20T14:51:53;4.72;;;3.63;;
79126;SDS011;68528;48.814;8.904;2023-08-20T14:54:22;6.38;;;3.92;;
79126;SDS011;68528;48.814;8.904;2023-08-20T14:56:48;5.85;;;3.92;;
79126;SDS011;68528;48.814;8.904;2023-08-20T14:59:16;9.27;;;3.83;;
79126;SDS011;68528;48.814;8.904;2023-08-20T15:01:58;4.72;;;3.67;;
79126;SDS011;68528;48.814;8.904;2023-08-20T15:04:25;6.65;;;4.10;;
79126;SDS011;68528;48.814;8.904;2023-08-20T15:06:54;5.80;;;4.20;;
79126;SDS011;68528;48.814;8.904;2023-08-20T15:09:20;8.85;;;4.72;;
79126;SDS011;68528;48.814;8.904;2023-08-20T15:11:45;8.07;;;4.07;;
79126;SDS011;68528;48.814;8.904;2023-08-20T15:14:11;8.77;;;4.88;;
79126;SDS011;68528;48.814;8.904;2023-08-20T15:16:36;6.43;;;4.35;;
79126;SDS011;68528;48.814;8.904;2023-08-20T15:19:02;5.18;;;3.55;;
79126;SDS011;68528;48.814;8.904;2023-08-20T15:21:28;4.97;;;4.07;;